Time;durP1;ratioP1;P1;durP2;ratioP2;P2;SDS_P1;SDS_P2;PMS_P1;PMS_P2;Temp;Humidity;BMP_temperature;BMP_pressure;BME280_temperature;BME280_humidity;BME280_pressure;Samples;Min_cycle;Max_cycle;Signal;HPM_P1;HPM_P2
2023/06/16 00:00:36;;;;;;;6.95;6.38;;;;;;;17.17;100.00;63770.66;5070510;28;20235;-74
2023/06/16 00:03:05;;;;;;;6.82;6.30;;;;;;;17.17;100.00;63770.66;5084376;28;20192;-74
2023/06/16 00:05:34;;;;;;;6.78;5.95;;;;;;;17.12;100.00;63770.59;5078524;28;20229;-75
2023/06/16 00:08:03;;;;;;;8.02;7.22;;;;;;;17.05;100.00;63760.25;5064010;28;20387;-75
2023/06/16 00:10:31;;;;;;;9.55;7.45;;;;;;;17.12;100.00;63768.03;5077740;28;20223;-75
2023/06/16 00:12:58;;;;;;;8.50;7.70;;;;;;;17.12;100.00;63767.50;5084426;28;20508;-75
2023/06/16 00:15:25;;;;;;;8.82;6.65;;;;;;;17.11;100.00;63769.06;5081617;28;20443;-74
2023/06/16 00:17:52;;;;;;;8.52;7.43;;;;;;;17.10;100.00;63765.44;5081654;28;20504;-74
2023/06/16 00:20:22;;;;;;;7.28;6.57;;;;;;;17.10;100.00;63765.94;5064778;28;20286;-76
2023/06/16 00:22:48;;;;;;;9.43;6.55;;;;;;;17.15;100.00;63768.06;5064216;28;20230;-73
2023/06/16 00:25:17;;;;;;;10.07;6.30;;;;;;;17.11;100.00;63769.06;5081700;28;20224;-74
2023/06/16 00:27:45;;;;;;;7.65;6.95;;;;;;;17.08;100.00;63769.00;5083754;28;20211;-74
2023/06/16 00:30:12;;;;;;;9.88;6.97;;;;;;;17.08;100.00;63763.88;5065514;28;20436;-74
2023/06/16 00:32:39;;;;;;;8.02;6.60;;;;;;;16.99;100.00;63754.50;5067760;28;20207;-74
2023/06/16 00:35:08;;;;;;;8.40;7.13;;;;;;;16.96;100.00;63751.38;5083828;28;20203;-73
2023/06/16 00:37:36;;;;;;;7.65;6.93;;;;;;;16.93;100.00;63748.25;5078979;28;20209;-74
2023/06/16 00:40:04;;;;;;;7.47;6.78;;;;;;;17.02;100.00;63759.69;5064236;28;20236;-74
2023/06/16 00:42:31;;;;;;;7.63;6.93;;;;;;;17.03;100.00;63756.09;5074424;28;20211;-73
2023/06/16 00:44:59;;;;;;;7.78;7.07;;;;;;;17.11;100.00;63767.00;5083702;28;20242;-76
2023/06/16 00:47:25;;;;;;;7.78;7.07;;;;;;;17.18;100.00;63774.28;5081674;28;20196;-76
2023/06/16 00:49:53;;;;;;;8.80;7.93;;;;;;;17.26;100.00;63782.59;5078590;28;20233;-74
2023/06/16 00:52:22;;;;;;;9.43;8.43;;;;;;;17.28;100.00;63784.16;5081604;28;20457;-75
2023/06/16 00:54:51;;;;;;;9.88;8.70;;;;;;;17.26;100.00;63785.19;5084331;28;20218;-75
2023/06/16 00:57:18;;;;;;;11.40;8.70;;;;;;;17.30;100.00;63783.69;5068234;28;20242;-73
2023/06/16 00:59:45;;;;;;;9.50;8.60;;;;;;;17.21;100.00;63777.41;5067827;28;20235;-74
2023/06/16 01:02:13;;;;;;;10.10;8.05;;;;;;;17.12;100.00;63764.94;5083922;28;20271;-75
2023/06/16 01:04:40;;;;;;;12.98;8.18;;;;;;;16.95;100.00;63747.78;5080179;28;20263;-74
2023/06/16 01:07:11;;;;;;;11.50;9.10;;;;;;;16.89;100.00;63746.69;5064962;28;20425;-73
2023/06/16 01:09:49;;;;;;;11.30;9.73;;;;;;;16.96;100.00;63748.81;5073998;28;20219;-74
2023/06/16 01:12:26;;;;;;;10.40;8.80;;;;;;;17.02;100.00;63760.19;5063108;28;20223;-73
2023/06/16 01:15:00;;;;;;;10.90;8.95;;;;;;;17.01;100.00;63756.06;5063060;28;20215;-75
2023/06/16 01:17:30;;;;;;;10.65;9.25;;;;;;;16.95;100.00;63749.81;5062872;28;20199;-74
2023/06/16 01:20:07;;;;;;;11.32;10.15;;;;;;;16.97;100.00;63754.47;5064320;28;20235;-74
2023/06/16 01:22:53;;;;;;;14.27;10.50;;;;;;;17.00;100.00;63758.13;5067909;28;20184;-74
2023/06/16 01:25:23;;;;;;;14.07;10.98;;;;;;;17.11;100.00;63767.00;5065887;28;20240;-74
2023/06/16 01:27:52;;;;;;;15.60;11.07;;;;;;;17.08;100.00;63763.88;5067023;28;20200;-75
2023/06/16 01:30:23;;;;;;;16.45;12.77;;;;;;;17.13;100.00;63763.94;5067629;28;20258;-73
2023/06/16 01:32:53;;;;;;;17.38;12.10;;;;;;;17.09;100.00;63764.38;5067243;28;20200;-74
2023/06/16 01:35:22;;;;;;;18.08;13.43;;;;;;;17.07;100.00;63764.88;5076408;28;20530;-74
2023/06/16 01:37:52;;;;;;;19.83;12.02;;;;;;;17.13;100.00;63769.09;5087289;28;20239;-75
2023/06/16 01:40:21;;;;;;;13.65;11.13;;;;;;;17.06;100.00;63759.22;5087028;28;20274;-73
2023/06/16 01:42:50;;;;;;;17.30;12.10;;;;;;;17.11;100.00;63767.00;5068033;28;20200;-73
2023/06/16 01:45:17;;;;;;;16.42;11.57;;;;;;;17.10;100.00;63768.00;5084979;28;20247;-74
2023/06/16 01:47:45;;;;;;;17.10;12.77;;;;;;;17.01;100.00;63759.16;5086928;28;20211;-74
2023/06/16 01:50:13;;;;;;;14.40;11.80;;;;;;;17.10;100.00;63765.44;5086000;28;20200;-74
2023/06/16 01:52:40;;;;;;;19.02;12.05;;;;;;;17.23;100.00;63779.50;5080440;28;20216;-75
2023/06/16 01:55:07;;;;;;;14.90;12.25;;;;;;;17.22;100.00;63780.50;5080674;28;20196;-73
2023/06/16 01:57:37;;;;;;;22.35;15.23;;;;;;;17.18;100.00;63774.28;5086644;28;20417;-73
2023/06/16 02:00:12;;;;;;;26.88;16.60;;;;;;;17.20;100.00;63776.34;5075884;28;20232;-73
2023/06/16 02:02:44;;;;;;;25.98;15.52;;;;;;;17.19;100.00;63772.75;5065255;28;20514;-73
2023/06/16 02:05:13;;;;;;;27.50;16.33;;;;;;;17.18;100.00;63779.44;5066547;28;20302;-74
2023/06/16 02:07:45;;;;;;;28.88;16.88;;;;;;;17.20;100.00;63781.00;5067076;28;20486;-73
2023/06/16 02:10:13;;;;;;;23.20;16.52;;;;;;;17.26;100.00;63780.03;5064349;28;20251;-73
2023/06/16 02:12:42;;;;;;;22.95;14.48;;;;;;;17.14;100.00;63775.25;5085548;28;20208;-74
2023/06/16 02:15:11;;;;;;;26.92;15.55;;;;;;;17.19;100.00;63777.38;5085961;28;20241;-74
2023/06/16 02:17:45;;;;;;;20.38;13.48;;;;;;;17.16;100.00;63769.63;5079029;28;20465;-74
2023/06/16 02:20:13;;;;;;;19.98;12.77;;;;;;;17.16;100.00;63769.09;5065567;28;20293;-73
2023/06/16 02:22:40;;;;;;;22.33;12.65;;;;;;;17.23;100.00;63778.97;5065734;28;20201;-74
2023/06/16 02:25:07;;;;;;;22.15;13.80;;;;;;;17.17;100.00;63768.09;5067518;28;20271;-74
2023/06/16 02:27:34;;;;;;;22.33;13.35;;;;;;;17.16;100.00;63771.69;5078846;28;20200;-74
2023/06/16 02:30:03;;;;;;;23.25;14.18;;;;;;;17.23;100.00;63774.34;5069375;28;20271;-74
2023/06/16 02:32:29;;;;;;;21.17;12.98;;;;;;;17.14;100.00;63772.69;5068290;28;20200;-73
2023/06/16 02:34:58;;;;;;;19.20;12.80;;;;;;;17.06;100.00;63759.22;5085072;28;20508;-74
2023/06/16 02:37:27;;;;;;;17.20;12.45;;;;;;;17.13;100.00;63769.09;5065653;28;20205;-74
2023/06/16 02:39:54;;;;;;;14.32;11.75;;;;;;;17.19;100.00;63775.31;5086171;28;20227;-74
2023/06/16 02:42:21;;;;;;;19.00;11.73;;;;;;;17.21;100.00;63777.41;5072857;28;20229;-73
2023/06/16 02:44:51;;;;;;;15.98;12.23;;;;;;;17.20;100.00;63773.78;5070618;28;20245;-73
2023/06/16 02:47:20;;;;;;;14.55;11.52;;;;;;;17.21;100.00;63779.44;5084968;28;20292;-74
2023/06/16 02:49:48;;;;;;;16.30;10.93;;;;;;;17.08;100.00;63763.88;5085745;28;20196;-74
2023/06/16 02:52:16;;;;;;;17.35;11.65;;;;;;;17.02;100.00;63757.09;5085250;28;20239;-74
2023/06/16 02:54:43;;;;;;;11.05;9.90;;;;;;;17.12;100.00;63765.47;5071530;28;20204;-74
2023/06/16 02:57:10;;;;;;;12.27;10.32;;;;;;;17.17;100.00;63773.25;5071762;28;20535;-72
2023/06/16 02:59:37;;;;;;;10.30;9.25;;;;;;;17.13;100.00;63774.22;5065509;28;20196;-73
2023/06/16 03:02:04;;;;;;;12.15;9.35;;;;;;;17.07;100.00;63762.84;5065940;28;20224;-74
2023/06/16 03:04:34;;;;;;;15.27;9.75;;;;;;;17.01;100.00;63756.59;5064119;28;20208;-73
2023/06/16 03:07:02;;;;;;;10.63;9.13;;;;;;;17.14;100.00;63769.59;5065946;28;20217;-72
2023/06/16 03:09:29;;;;;;;8.82;7.90;;;;;;;17.15;100.00;63768.06;5073459;28;20216;-74
2023/06/16 03:11:57;;;;;;;10.93;8.77;;;;;;;17.01;100.00;63756.06;5078695;28;20267;-73
2023/06/16 03:14:23;;;;;;;10.88;8.25;;;;;;;17.14;100.00;63772.69;5071705;28;20380;-75
2023/06/16 03:16:51;;;;;;;8.70;7.82;;;;;;;17.19;100.00;63777.38;5085147;28;20212;-74
2023/06/16 03:19:19;;;;;;;11.63;8.98;;;;;;;17.25;100.00;63781.56;5082511;28;20727;-73
2023/06/16 03:21:48;;;;;;;8.82;7.75;;;;;;;17.26;100.00;63784.66;5071950;28;20544;-74
2023/06/16 03:24:16;;;;;;;10.00;7.85;;;;;;;17.15;100.00;63773.72;5064541;28;20223;-73
2023/06/16 03:26:44;;;;;;;11.20;7.18;;;;;;;17.17;100.00;63775.81;5065737;28;20216;-72
2023/06/16 03:29:12;;;;;;;8.45;7.63;;;;;;;17.20;100.00;63773.28;5065020;28;20196;-74
2023/06/16 03:31:39;;;;;;;9.30;7.60;;;;;;;17.22;100.00;63780.50;5064466;28;20227;-74
2023/06/16 03:34:06;;;;;;;8.75;7.70;;;;;;;17.30;100.00;63786.78;5064373;28;20196;-73
2023/06/16 03:36:35;;;;;;;8.57;7.55;;;;;;;17.33;100.00;63786.78;5063918;28;20415;-73
2023/06/16 03:39:05;;;;;;;7.57;6.97;;;;;;;17.27;100.00;63780.56;5063513;28;20256;-74
2023/06/16 03:41:32;;;;;;;6.97;6.35;;;;;;;17.06;100.00;63761.28;5071578;28;20231;-75
2023/06/16 03:43:59;;;;;;;7.03;6.32;;;;;;;17.03;100.00;63758.16;5084234;28;20427;-73
2023/06/16 03:46:28;;;;;;;6.47;5.95;;;;;;;17.11;100.00;63763.91;5073329;28;20220;-75
2023/06/16 03:48:55;;;;;;;6.32;5.70;;;;;;;17.13;100.00;63768.56;5063883;28;20225;-74
2023/06/16 03:51:24;;;;;;;6.28;5.60;;;;;;;17.15;100.00;63770.66;5064358;28;20278;-75
2023/06/16 03:53:51;;;;;;;6.28;5.78;;;;;;;17.23;100.00;63779.50;5065383;28;20274;-74
2023/06/16 03:56:19;;;;;;;7.18;6.55;;;;;;;17.24;100.00;63783.09;5064558;28;20221;-75
2023/06/16 03:58:48;;;;;;;8.43;6.40;;;;;;;17.26;100.00;63777.47;5064703;28;20238;-72
2023/06/16 04:01:15;;;;;;;6.80;6.22;;;;;;;17.37;100.00;63793.53;5084328;28;20236;-74
2023/06/16 04:03:43;;;;;;;13.25;8.18;;;;;;;17.42;100.00;63798.22;5084488;28;20546;-72
2023/06/16 04:06:10;;;;;;;11.52;8.15;;;;;;;17.51;100.00;63807.63;5077737;28;20456;-73
2023/06/16 04:08:37;;;;;;;12.27;9.93;;;;;;;17.57;100.00;63811.28;5068581;28;20227;-73
2023/06/16 04:11:04;;;;;;;11.25;9.50;;;;;;;17.68;100.00;63825.31;5064365;28;20219;-73
2023/06/16 04:13:33;;;;;;;17.02;10.80;;;;;;;17.73;100.00;63830.53;5064447;28;20446;-74
2023/06/16 04:16:00;;;;;;;16.23;10.90;;;;;;;17.77;100.00;63837.78;5063831;28;20516;-72
2023/06/16 04:18:27;;;;;;;13.13;10.68;;;;;;;17.88;100.00;63851.81;5064565;28;20200;-72
2023/06/16 04:20:54;;;;;;;20.45;11.93;;;;;;;17.96;100.00;63855.00;5064262;28;20469;-72
2023/06/16 04:23:23;;;;;;;12.88;11.23;;;;;;;17.97;100.00;63853.47;5063927;28;20192;-73
2023/06/16 04:25:50;;;;;;;12.88;10.77;;;;;;;18.04;100.00;63865.91;5061158;28;20302;-73
2023/06/16 04:28:17;;;;;;;12.63;11.25;;;;;;;18.12;100.00;63871.16;5064116;28;20231;-73
2023/06/16 04:30:45;;;;;;;14.02;12.15;;;;;;;18.22;100.00;63884.16;5081198;28;20416;-72
2023/06/16 04:33:12;;;;;;;15.30;12.05;;;;;;;18.18;100.00;63879.97;5075339;28;20200;-73
2023/06/16 04:35:39;;;;;;;13.13;10.70;;;;;;;18.17;100.00;63879.44;5063251;28;20563;-73
2023/06/16 04:38:07;;;;;;;12.23;10.98;;;;;;;18.17;100.00;63879.44;5063889;28;20209;-73
2023/06/16 04:40:35;;;;;;;13.55;12.13;;;;;;;18.14;100.00;63870.66;5063848;28;20290;-73
2023/06/16 04:43:02;;;;;;;13.73;12.23;;;;;;;17.98;100.00;63859.66;5071102;28;20200;-74
2023/06/16 04:45:29;;;;;;;15.20;13.52;;;;;;;17.82;100.00;63843.00;5064297;28;20208;-74
2023/06/16 04:47:57;;;;;;;19.88;14.10;;;;;;;17.90;100.00;63853.91;5063376;28;20201;-74
2023/06/16 04:50:25;;;;;;;15.85;13.95;;;;;;;17.94;100.00;63852.94;5063638;28;20255;-74
2023/06/16 04:52:52;;;;;;;17.67;14.57;;;;;;;18.00;100.00;63863.81;5079146;28;20430;-73
2023/06/16 04:55:20;;;;;;;19.63;15.23;;;;;;;17.98;100.00;63859.16;5065597;28;20220;-73
2023/06/16 04:57:48;;;;;;;16.27;14.48;;;;;;;17.96;100.00;63860.16;5063569;28;20521;-74
2023/06/16 05:00:15;;;;;;;17.40;14.88;;;;;;;17.97;100.00;63855.53;5066711;28;20229;-75
2023/06/16 05:02:43;;;;;;;18.58;15.70;;;;;;;18.01;100.00;63854.53;5081335;28;20200;-73
2023/06/16 05:05:11;;;;;;;18.70;15.55;;;;;;;18.09;100.00;63871.13;5081812;28;20204;-73
2023/06/16 05:07:38;;;;;;;15.63;13.90;;;;;;;18.13;100.00;63870.13;5083717;28;20222;-76
2023/06/16 05:10:06;;;;;;;13.88;12.55;;;;;;;18.08;100.00;63866.97;5079880;28;20306;-73
2023/06/16 05:12:33;;;;;;;13.90;12.32;;;;;;;18.13;100.00;63875.28;5083882;28;20523;-75
2023/06/16 05:15:02;;;;;;;19.38;13.18;;;;;;;18.04;100.00;63860.22;5064110;28;20216;-73
2023/06/16 05:17:29;;;;;;;17.98;15.00;;;;;;;18.04;100.00;63862.81;5063082;28;20192;-72
2023/06/16 05:19:56;;;;;;;16.55;14.52;;;;;;;18.16;100.00;63872.72;5074430;28;20215;-73
2023/06/16 05:22:24;;;;;;;15.43;13.85;;;;;;;18.17;100.00;63876.88;5069784;28;20248;-74
2023/06/16 05:24:55;;;;;;;17.42;14.70;;;;;;;18.16;100.00;63875.31;5063876;28;20236;-74
2023/06/16 05:27:24;;;;;;;16.98;14.27;;;;;;;18.16;100.00;63872.72;5062935;28;20211;-73
2023/06/16 05:29:51;;;;;;;17.38;15.13;;;;;;;18.09;100.00;63873.16;5077829;28;20532;-73
2023/06/16 05:32:19;;;;;;;16.50;14.80;;;;;;;18.19;100.00;63876.38;5064828;28;20285;-73
2023/06/16 05:34:47;;;;;;;16.95;14.88;;;;;;;18.38;100.00;63903.38;5062604;28;20493;-73
2023/06/16 05:37:17;;;;;;;24.02;16.67;;;;;;;18.60;100.00;63920.66;5061411;28;20231;-73
2023/06/16 05:39:46;;;;;;;20.17;16.40;;;;;;;18.60;100.00;63923.25;5063386;28;20211;-75
2023/06/16 05:42:14;;;;;;;20.50;15.82;;;;;;;18.57;100.00;63917.53;5078911;28;20231;-74
2023/06/16 05:44:41;;;;;;;18.55;15.02;;;;;;;18.55;100.00;63915.44;5083083;28;20406;-74
2023/06/16 05:47:09;;;;;;;18.25;15.90;;;;;;;18.69;100.00;63930.03;5070866;28;20236;-75
2023/06/16 05:49:37;;;;;;;20.17;15.40;;;;;;;18.90;100.00;63949.34;5063142;28;20524;-74
2023/06/16 05:52:05;;;;;;;19.33;16.20;;;;;;;19.31;100.00;63995.22;5066090;28;20214;-73
2023/06/16 05:54:32;;;;;;;19.50;14.88;;;;;;;19.68;100.00;64032.75;5082721;28;20200;-74
2023/06/16 05:57:01;;;;;;;21.95;14.50;;;;;;;19.94;100.00;64057.28;5066896;28;20225;-73
2023/06/16 05:59:29;;;;;;;16.40;13.93;;;;;;;20.06;100.00;64078.09;5063004;28;20192;-73
2023/06/16 06:01:57;;;;;;;14.48;12.88;;;;;;;20.24;100.00;64094.31;5076977;28;20235;-73
2023/06/16 06:04:28;;;;;;;12.40;11.20;;;;;;;20.16;100.00;64085.97;5066920;28;20374;-73
2023/06/16 06:06:55;;;;;;;15.15;13.55;;;;;;;20.40;100.00;64113.59;5078346;28;20690;-74
2023/06/16 06:09:22;;;;;;;13.85;11.75;;;;;;;20.93;100.00;64168.41;5068297;28;20209;-75
2023/06/16 06:11:50;;;;;;;13.55;12.27;;;;;;;21.01;100.00;64171.59;5066688;28;20263;-74
2023/06/16 06:14:19;;;;;;;12.55;10.93;;;;;;;20.71;100.00;64139.75;5066145;28;20243;-74
2023/06/16 06:16:46;;;;;;;12.50;11.48;;;;;;;20.42;100.00;64115.16;5066392;28;20247;-73
2023/06/16 06:19:12;;;;;;;13.18;11.52;;;;;;;20.68;100.00;64137.66;5069262;28;20419;-74
2023/06/16 06:21:40;;;;;;;13.00;11.80;;;;;;;20.83;100.00;64155.38;5067972;28;20250;-74
2023/06/16 06:24:08;;;;;;;11.73;10.63;;;;;;;21.07;100.00;64179.94;5079803;28;20200;-74
2023/06/16 06:26:38;;;;;;;10.18;9.18;;;;;;;21.37;100.00;64211.78;5086164;28;20295;-76
2023/06/16 06:29:05;;;;;;;10.98;9.98;;;;;;;21.43;100.00;64220.63;5068580;28;20394;-74
2023/06/16 06:31:34;;;;;;;9.63;8.70;;;;;;;21.65;100.00;64238.44;5065987;28;20525;-73
2023/06/16 06:34:01;;;;;;;9.43;8.45;;;;;;;21.87;100.00;64263.50;5077184;28;20271;-75
2023/06/16 06:36:28;;;;;;;8.23;7.53;;;;;;;22.14;100.00;64286.53;5086522;28;20262;-75
2023/06/16 06:38:56;;;;;;;8.80;8.00;;;;;;;21.90;100.00;64271.31;5067066;28;20201;-74
2023/06/16 06:41:23;;;;;;;7.72;7.13;;;;;;;22.20;100.00;64297.47;5075839;28;20717;-75
2023/06/16 06:43:50;;;;;;;7.60;6.75;;;;;;;22.66;100.00;64342.97;5067600;28;20195;-75
2023/06/16 06:46:18;;;;;;;7.18;6.57;;;;;;;22.76;100.00;64356.06;5068151;28;20217;-74
2023/06/16 06:48:47;;;;;;;7.45;6.75;;;;;;;22.79;100.00;64361.78;5066374;28;20220;-77
2023/06/16 06:51:14;;;;;;;6.95;6.40;;;;;;;22.45;100.00;64324.13;5066151;28;20239;-74
2023/06/16 06:53:42;;;;;;;7.72;7.03;;;;;;;22.55;100.00;64334.63;5066389;28;20201;-74
2023/06/16 06:56:09;;;;;;;6.95;6.45;;;;;;;22.69;100.00;64349.25;5066133;28;20543;-74
2023/06/16 06:58:36;;;;;;;7.35;6.70;;;;;;;22.62;100.00;64341.91;5064810;28;20201;-76
2023/06/16 07:01:03;;;;;;;5.95;5.43;;;;;;;22.55;100.00;64331.50;5071853;28;20477;-74
2023/06/16 07:03:30;;;;;;;6.78;6.18;;;;;;;22.46;100.00;64324.66;5066962;28;20267;-76
2023/06/16 07:05:58;;;;;;;5.75;5.35;;;;;;;22.57;100.00;64336.19;5074093;28;20566;-75
2023/06/16 07:08:25;;;;;;;5.43;4.78;;;;;;;22.62;100.00;64339.31;5075529;28;20361;-74
2023/06/16 07:10:52;;;;;;;7.22;5.05;;;;;;;22.58;100.00;64334.63;5074956;28;20270;-76
2023/06/16 07:13:19;;;;;;;5.22;4.93;;;;;;;22.71;100.00;64346.13;5065975;28;20197;-74
2023/06/16 07:15:46;;;;;;;5.40;5.00;;;;;;;22.85;100.00;64368.56;5070354;28;20252;-76
2023/06/16 07:18:13;;;;;;;5.03;4.70;;;;;;;23.03;100.00;64381.69;5084140;28;20215;-74
2023/06/16 07:20:40;;;;;;;5.68;5.18;;;;;;;23.01;100.00;64382.19;5084688;28;20287;-75
2023/06/16 07:23:10;;;;;;;6.38;4.78;;;;;;;23.30;100.00;64412.53;5078647;28;20238;-75
2023/06/16 07:25:37;;;;;;;5.85;5.30;;;;;;;23.59;100.00;64437.16;5070960;28;20225;-76
2023/06/16 07:28:06;;;;;;;5.43;5.13;;;;;;;23.54;100.00;64435.03;5065810;28;20193;-74
2023/06/16 07:30:33;;;;;;;5.40;4.80;;;;;;;23.36;100.00;64418.28;5066350;28;20251;-75
2023/06/16 07:33:00;;;;;;;10.95;7.35;;;;;;;23.12;100.00;64391.09;5067180;28;20197;-76
2023/06/16 07:35:27;;;;;;;6.18;5.57;;;;;;;23.22;100.00;64406.22;5067506;28;20216;-75
2023/06/16 07:37:54;;;;;;;5.57;5.18;;;;;;;23.18;100.00;64399.44;5076914;28;20246;-75
2023/06/16 07:40:23;;;;;;;5.75;5.20;;;;;;;23.31;100.00;64410.47;5072597;28;20591;-76
2023/06/16 07:42:50;;;;;;;5.30;4.90;;;;;;;23.05;100.00;64380.66;5078220;28;20234;-75
2023/06/16 07:45:18;;;;;;;5.28;4.85;;;;;;;23.03;100.00;64381.69;5080702;28;20224;-77
2023/06/16 07:47:46;;;;;;;5.25;4.80;;;;;;;23.24;100.00;64406.25;5067686;28;20278;-74
2023/06/16 07:50:13;;;;;;;5.00;4.65;;;;;;;23.75;100.00;64459.09;5067329;28;20416;-74
2023/06/16 07:52:41;;;;;;;5.53;5.03;;;;;;;24.16;100.00;64502.03;5066972;28;20219;-75
2023/06/16 07:55:10;;;;;;;4.93;4.43;;;;;;;24.40;100.00;64524.03;5069515;28;20203;-75
2023/06/16 07:57:40;;;;;;;5.43;5.00;;;;;;;24.47;100.00;64531.88;5069469;28;20400;-77
2023/06/16 08:00:12;;;;;;;7.07;6.50;;;;;;;24.52;100.00;64539.72;5071343;28;20196;-74
2023/06/16 08:02:40;;;;;;;8.30;7.53;;;;;;;24.25;100.00;64510.91;5068969;28;20299;-74
2023/06/16 08:05:08;;;;;;;8.38;7.68;;;;;;;23.81;100.00;64465.91;5070566;28;20196;-74
2023/06/16 08:07:35;;;;;;;9.90;8.93;;;;;;;23.53;100.00;64431.41;5067758;28;20212;-74
2023/06/16 08:10:03;;;;;;;9.48;8.50;;;;;;;23.25;100.00;64407.28;5068523;28;20248;-76
2023/06/16 08:12:29;;;;;;;10.52;9.55;;;;;;;23.05;100.00;64386.38;5069704;28;20208;-74
2023/06/16 08:14:58;;;;;;;9.70;8.82;;;;;;;22.88;100.00;64371.19;5070189;28;20414;-77
2023/06/16 08:17:25;;;;;;;9.77;8.82;;;;;;;22.75;100.00;64355.00;5065309;28;20197;-77
2023/06/16 08:19:53;;;;;;;9.38;8.48;;;;;;;22.75;100.00;64352.94;5063343;28;20208;-74
2023/06/16 08:22:20;;;;;;;9.70;8.77;;;;;;;22.87;100.00;64364.94;5067271;28;20388;-76
2023/06/16 08:24:48;;;;;;;9.75;8.85;;;;;;;23.01;100.00;64382.19;5072149;28;20522;-77
2023/06/16 08:27:15;;;;;;;10.18;9.15;;;;;;;23.07;100.00;64390.53;5074591;28;20236;-75
2023/06/16 08:29:42;;;;;;;13.43;10.85;;;;;;;23.34;100.00;64411.00;5064195;28;20212;-75
2023/06/16 08:32:11;;;;;;;11.45;10.13;;;;;;;23.72;100.00;64453.34;5070372;28;20416;-74
2023/06/16 08:34:39;;;;;;;12.30;10.40;;;;;;;23.89;100.00;64471.16;5066568;28;20200;-77
2023/06/16 08:37:07;;;;;;;11.68;10.52;;;;;;;24.21;100.00;64506.75;5063242;28;20219;-75
2023/06/16 08:39:34;;;;;;;11.60;10.45;;;;;;;24.52;100.00;64536.59;5069785;28;20200;-75
2023/06/16 08:42:01;;;;;;;13.40;10.73;;;;;;;24.98;98.03;64582.16;5075072;28;20294;-77
2023/06/16 08:44:29;;;;;;;10.65;9.63;;;;;;;25.46;93.08;64634.56;5073138;28;20227;-76
2023/06/16 08:46:59;;;;;;;10.43;9.55;;;;;;;25.75;88.79;64662.31;5068790;28;20525;-75
2023/06/16 08:49:27;;;;;;;11.43;10.32;;;;;;;26.01;90.10;64689.56;5070704;28;20216;-76
2023/06/16 08:51:57;;;;;;;11.82;9.98;;;;;;;26.17;82.66;64711.59;5069345;28;20232;-76
2023/06/16 08:54:26;;;;;;;11.43;10.43;;;;;;;26.25;86.90;64716.84;5071270;28;20203;-77
2023/06/16 08:56:53;;;;;;;13.55;10.73;;;;;;;26.26;83.71;64721.03;5064898;28;20219;-76
2023/06/16 08:59:21;;;;;;;11.88;10.68;;;;;;;26.18;83.22;64713.16;5070666;28;20246;-75
2023/06/16 09:01:49;;;;;;;11.85;10.75;;;;;;;26.52;83.47;64747.78;5062242;28;20233;-76
2023/06/16 09:04:16;;;;;;;11.35;10.35;;;;;;;26.75;78.61;64769.81;5067316;28;20225;-77
2023/06/16 09:06:48;;;;;;;11.23;10.13;;;;;;;26.17;76.37;64714.75;5065370;28;20217;-75
2023/06/16 09:09:16;;;;;;;10.50;9.60;;;;;;;26.23;72.83;64713.19;5070429;28;20481;-77
2023/06/16 09:11:43;;;;;;;10.60;9.80;;;;;;;26.17;77.74;64708.97;5077536;28;20220;-77
2023/06/16 09:14:14;;;;;;;10.68;9.48;;;;;;;26.12;75.21;64703.75;5070454;28;20193;-77
2023/06/16 09:16:42;;;;;;;11.30;10.20;;;;;;;26.36;71.91;64731.53;5066679;28;20220;-76
2023/06/16 09:19:12;;;;;;;12.20;10.38;;;;;;;26.27;74.81;64722.06;5069143;28;20200;-75
2023/06/16 09:21:39;;;;;;;11.23;10.15;;;;;;;26.20;69.05;64714.75;5072188;28;20249;-76
2023/06/16 09:24:08;;;;;;;10.60;9.70;;;;;;;26.42;71.17;64739.91;5072565;28;20196;-75
2023/06/16 09:26:35;;;;;;;11.63;10.63;;;;;;;26.42;68.13;64739.91;5062230;28;20240;-76
2023/06/16 09:29:03;;;;;;;10.75;9.82;;;;;;;26.20;67.24;64712.66;5065999;28;20386;-76
2023/06/16 09:31:30;;;;;;;10.77;9.82;;;;;;;26.10;70.50;64704.78;5066301;28;20223;-78
2023/06/16 09:34:07;;;;;;;10.88;9.88;;;;;;;25.99;69.73;64690.63;5071884;28;20219;-76
2023/06/16 09:36:34;;;;;;;10.25;9.40;;;;;;;25.78;71.78;64673.81;5058277;28;20221;-78
2023/06/16 09:39:01;;;;;;;11.45;10.38;;;;;;;25.62;73.75;64648.72;5051514;28;20209;-78
2023/06/16 09:41:34;;;;;;;11.82;10.73;;;;;;;25.46;74.45;64634.56;5053731;28;20208;-77
2023/06/16 09:44:03;;;;;;;11.85;10.77;;;;;;;25.39;73.40;64627.22;5051814;28;20231;-77
2023/06/16 09:46:31;;;;;;;11.65;10.48;;;;;;;25.14;77.61;64604.16;5053676;28;20227;-76
2023/06/16 09:48:58;;;;;;;11.98;10.75;;;;;;;24.82;82.06;64570.63;5053685;28;20251;-78
2023/06/16 09:51:25;;;;;;;11.65;10.55;;;;;;;24.39;80.07;64528.19;5056124;28;20544;-78
2023/06/16 09:53:53;;;;;;;12.05;10.85;;;;;;;23.84;86.60;64466.44;5055467;28;20257;-75
2023/06/16 09:56:20;;;;;;;12.10;11.00;;;;;;;23.56;84.39;64439.75;5054933;28;20493;-76
2023/06/16 09:58:49;;;;;;;12.88;11.52;;;;;;;23.38;89.34;64423.00;5054481;28;20208;-76
2023/06/16 10:01:18;;;;;;;12.02;10.90;;;;;;;23.72;90.05;64456.50;5049982;28;20216;-76
2023/06/16 10:03:50;;;;;;;13.23;10.75;;;;;;;24.03;87.47;64493.63;5052787;28;20234;-75
2023/06/16 10:06:20;;;;;;;12.32;11.32;;;;;;;23.94;89.61;64479.50;5056690;28;20229;-76
2023/06/16 10:08:48;;;;;;;12.57;11.38;;;;;;;24.08;87.93;64490.53;5048467;28;21655;-76
2023/06/16 10:11:17;;;;;;;11.25;10.15;;;;;;;24.17;88.44;64503.06;5050555;28;20553;-76
2023/06/16 10:13:51;;;;;;;11.55;10.55;;;;;;;24.50;82.92;64531.88;5055417;28;20197;-77
2023/06/16 10:16:21;;;;;;;12.63;11.48;;;;;;;24.19;79.95;64499.44;5048080;28;20229;-77
2023/06/16 10:18:53;;;;;;;13.15;11.95;;;;;;;23.75;80.47;64459.63;5047487;28;20446;-78
2023/06/16 10:21:20;;;;;;;13.52;11.63;;;;;;;23.43;82.12;64423.56;5050538;28;20225;-75
2023/06/16 10:23:47;;;;;;;13.45;12.05;;;;;;;23.16;84.76;64400.47;5054719;28;20236;-77
2023/06/16 10:26:15;;;;;;;13.80;12.55;;;;;;;23.16;86.92;64392.66;5050735;28;20560;-76
2023/06/16 10:28:43;;;;;;;14.38;12.88;;;;;;;23.03;88.06;64381.69;5055989;28;20197;-76
2023/06/16 10:31:14;;;;;;;15.25;13.70;;;;;;;23.14;88.42;64393.19;5051623;28;20272;-74
2023/06/16 10:33:55;;;;;;;14.98;13.43;;;;;;;23.24;88.21;64406.25;5053427;28;20200;-75
2023/06/16 10:36:24;;;;;;;14.93;13.30;;;;;;;23.19;84.79;64401.03;5056915;28;20240;-78
2023/06/16 10:38:59;;;;;;;14.75;13.18;;;;;;;23.13;85.82;64394.75;5072484;28;20196;-80
2023/06/16 10:41:29;;;;;;;15.43;13.95;;;;;;;22.94;83.60;64372.28;5078843;28;20283;-78
2023/06/16 10:43:56;;;;;;;13.90;12.60;;;;;;;22.97;82.62;64380.09;5068405;28;20236;-78
2023/06/16 10:46:25;;;;;;;13.60;12.40;;;;;;;23.04;83.73;64384.81;5076858;28;20244;-79
2023/06/16 10:49:18;;;;;;;15.80;14.32;;;;;;;22.92;86.60;64372.25;5070607;28;20204;-74
2023/06/16 10:51:49;;;;;;;13.70;12.30;;;;;;;22.82;84.19;64362.31;5069202;28;20536;-77
2023/06/16 10:54:35;;;;;;;17.95;13.57;;;;;;;22.64;85.95;64341.41;5075091;28;20203;-76
2023/06/16 10:57:07;;;;;;;15.95;14.27;;;;;;;22.80;87.38;64360.22;5065338;28;20222;-77
2023/06/16 10:59:54;;;;;;;15.30;13.55;;;;;;;22.80;87.74;64355.56;5070667;28;20247;-74
2023/06/16 11:02:24;;;;;;;15.80;12.93;;;;;;;23.08;85.86;64383.78;5074340;28;20519;-76
2023/06/16 11:05:12;;;;;;;14.57;13.23;;;;;;;23.10;85.10;64389.00;5068203;28;20205;-76
2023/06/16 11:07:40;;;;;;;13.65;12.35;;;;;;;23.32;85.42;64406.31;5076252;28;20240;-75
2023/06/16 11:10:09;;;;;;;13.35;12.05;;;;;;;23.18;84.96;64399.44;5074361;28;20196;-76
2023/06/16 11:12:37;;;;;;;13.13;11.90;;;;;;;23.23;80.67;64405.19;5078410;28;20197;-76
2023/06/16 11:15:05;;;;;;;13.45;12.05;;;;;;;23.21;83.91;64397.38;5067451;28;20489;-77
2023/06/16 11:17:34;;;;;;;15.15;13.70;;;;;;;23.19;84.05;64401.03;5075100;28;20246;-77
2023/06/16 11:20:05;;;;;;;12.77;11.68;;;;;;;23.24;80.21;64403.13;5067303;28;20200;-76
2023/06/16 11:22:34;;;;;;;14.00;12.60;;;;;;;23.18;80.44;64396.84;5069787;28;20246;-77